createdAt,value
2022-08-07T00:00:52.402Z,11.80
2022-08-07T00:03:19.857Z,11.70
2022-08-07T00:05:54.193Z,11.60
2022-08-07T00:08:22.768Z,11.50
2022-08-07T00:10:57.500Z,11.40
2022-08-07T00:13:26.759Z,11.40
2022-08-07T00:15:54.808Z,11.30
2022-08-07T00:18:25.646Z,11.30
2022-08-07T00:21:03.463Z,11.30
2022-08-07T00:23:39.515Z,11.30
2022-08-07T00:26:18.655Z,11.30
2022-08-07T00:28:57.208Z,11.30
2022-08-07T00:31:37.288Z,11.20
2022-08-07T00:34:05.345Z,11.10
2022-08-07T00:36:42.619Z,11.10
2022-08-07T00:39:12.757Z,11.10
2022-08-07T00:42:02.050Z,11.00
2022-08-07T00:44:33.695Z,10.90
2022-08-07T00:47:02.277Z,11.00
2022-08-07T00:50:21.487Z,10.90
2022-08-07T00:52:20.159Z,10.90
2022-08-07T00:54:53.736Z,10.80
2022-08-07T00:57:23.258Z,11.00
2022-08-07T00:59:53.824Z,10.90
2022-08-07T01:02:28.507Z,11.00
2022-08-07T01:04:59.187Z,10.90
2022-08-07T01:07:29.315Z,10.90
2022-08-07T01:10:06.373Z,10.80
2022-08-07T01:12:53.234Z,10.80
2022-08-07T01:15:36.136Z,10.60
2022-08-07T01:18:17.129Z,10.60
2022-08-07T01:20:57.559Z,10.50
2022-08-07T01:23:38.683Z,10.40
2022-08-07T01:26:12.205Z,10.40
2022-08-07T01:28:46.323Z,10.30
2022-08-07T01:31:21.291Z,10.30
2022-08-07T01:33:55.905Z,10.30
2022-08-07T01:36:33.299Z,10.30
2022-08-07T01:39:10.024Z,10.30
2022-08-07T01:42:07.088Z,10.40
2022-08-07T01:44:31.371Z,10.60
2022-08-07T01:47:01.225Z,10.60
2022-08-07T01:49:43.818Z,10.50
2022-08-07T01:52:13.446Z,10.50
2022-08-07T01:54:45.107Z,10.40
2022-08-07T01:57:24.744Z,10.20
2022-08-07T02:00:12.872Z,10.20
2022-08-07T02:03:18.175Z,10.10
2022-08-07T02:05:59.789Z,10.00
2022-08-07T02:08:33.818Z,10.00
2022-08-07T02:11:03.863Z,9.90
2022-08-07T02:13:57.534Z,9.90
2022-08-07T02:20:05.339Z,9.90
2022-08-07T02:22:07.742Z,10.00
2022-08-07T02:24:35.787Z,10.10
2022-08-07T02:27:04.060Z,10.00
2022-08-07T02:29:43.505Z,9.90
2022-08-07T02:32:23.280Z,9.90
2022-08-07T02:34:52.208Z,9.90
2022-08-07T02:37:24.933Z,9.80
2022-08-07T02:40:11.819Z,9.80
2022-08-07T02:42:46.696Z,9.90
2022-08-07T02:46:00.505Z,9.90
2022-08-07T02:48:10.040Z,9.80
2022-08-07T02:50:43.461Z,9.70
2022-08-07T02:53:17.972Z,9.60
2022-08-07T02:56:03.250Z,9.60
2022-08-07T02:58:35.163Z,9.60
2022-08-07T03:01:05.866Z,9.60
2022-08-07T03:03:49.459Z,9.50
2022-08-07T03:06:41.412Z,9.40
2022-08-07T03:09:11.236Z,9.40
2022-08-07T03:11:52.142Z,9.30
2022-08-07T03:14:28.147Z,9.20
2022-08-07T03:16:56.969Z,9.20
2022-08-07T03:19:28.987Z,9.20
2022-08-07T03:22:07.068Z,9.20
2022-08-07T03:24:34.838Z,9.20
2022-08-07T03:27:09.120Z,9.20
2022-08-07T03:29:51.470Z,9.20
2022-08-07T03:32:36.885Z,9.10
2022-08-07T03:35:17.711Z,9.10
2022-08-07T03:37:53.542Z,9.10
2022-08-07T03:40:30.681Z,9.10
2022-08-07T03:43:01.401Z,9.10
2022-08-07T03:45:32.860Z,9.10
2022-08-07T03:48:11.703Z,9.20
2022-08-07T03:50:43.170Z,9.20
2022-08-07T03:53:50.181Z,9.30
2022-08-07T03:56:13.748Z,9.20
2022-08-07T03:59:07.996Z,9.20
2022-08-07T04:01:32.091Z,9.20
2022-08-07T04:04:00.233Z,9.20
2022-08-07T04:06:38.160Z,9.20
2022-08-07T04:09:15.302Z,9.30
2022-08-07T04:12:23.581Z,9.20
2022-08-07T04:14:38.782Z,9.20
2022-08-07T04:17:19.979Z,9.20
2022-08-07T04:19:54.171Z,9.30
2022-08-07T04:22:27.494Z,9.30
2022-08-07T04:24:58.455Z,9.40
2022-08-07T04:27:26.842Z,9.40
2022-08-07T04:30:02.634Z,9.50
2022-08-07T04:32:47.930Z,9.60
2022-08-07T04:35:17.520Z,9.70
2022-08-07T04:38:03.333Z,9.80
2022-08-07T04:40:35.567Z,9.90
2022-08-07T04:43:11.899Z,10.00
2022-08-07T04:46:02.904Z,10.20
2022-08-07T04:48:50.874Z,10.30
2022-08-07T04:51:45.213Z,10.40
2022-08-07T04:55:15.389Z,10.60
2022-08-07T04:58:26.090Z,10.80
2022-08-07T05:01:18.057Z,11.00
2022-08-07T05:04:06.517Z,11.10
2022-08-07T05:07:30.403Z,11.30
2022-08-07T05:10:11.048Z,11.50
2022-08-07T05:12:53.681Z,11.70
2022-08-07T05:15:39.612Z,12.00
2022-08-07T05:18:29.613Z,12.10
2022-08-07T05:21:02.556Z,12.30
2022-08-07T05:23:48.091Z,12.40
2022-08-07T05:26:23.921Z,12.50
2022-08-07T05:29:00.363Z,12.90
2022-08-07T05:31:38.428Z,13.00
2022-08-07T05:34:13.240Z,13.10
2022-08-07T05:36:53.143Z,13.20
2022-08-07T05:40:17.151Z,13.40
2022-08-07T05:42:33.723Z,13.60
2022-08-07T05:45:25.742Z,13.70
2022-08-07T05:48:03.274Z,13.90
2022-08-07T05:50:43.023Z,14.00
2022-08-07T05:54:12.676Z,14.20
2022-08-07T05:56:05.697Z,14.30
2022-08-07T05:58:39.232Z,14.50
2022-08-07T06:01:12.566Z,14.90
2022-08-07T06:03:57.270Z,15.40
2022-08-07T06:06:32.641Z,15.40
2022-08-07T06:09:05.022Z,15.60
2022-08-07T06:11:35.901Z,15.80
2022-08-07T06:14:12.466Z,16.00
2022-08-07T06:16:55.796Z,16.10
2022-08-07T06:19:51.766Z,16.50
2022-08-07T06:22:23.810Z,16.70
2022-08-07T06:25:06.587Z,16.70
2022-08-07T06:27:44.079Z,17.00
2022-08-07T06:30:35.755Z,17.00
2022-08-07T06:33:16.169Z,17.10
2022-08-07T06:35:48.077Z,17.30
2022-08-07T06:38:35.026Z,17.60
2022-08-07T06:41:09.735Z,17.90
2022-08-07T06:43:59.210Z,18.30
2022-08-07T06:46:35.214Z,18.40
2022-08-07T06:49:05.178Z,18.60
2022-08-07T06:51:49.273Z,19.20
2022-08-07T06:55:32.353Z,19.60
2022-08-07T06:57:10.160Z,20.00
2022-08-07T07:00:12.029Z,20.40
2022-08-07T07:02:53.793Z,20.90
2022-08-07T07:06:03.074Z,21.00
2022-08-07T07:08:12.668Z,20.90
2022-08-07T07:10:47.595Z,21.30
2022-08-07T07:13:58.781Z,21.60
2022-08-07T07:16:45.181Z,21.80
2022-08-07T07:19:55.479Z,22.70
2022-08-07T07:22:34.024Z,22.70
2022-08-07T07:26:31.280Z,23.20
2022-08-07T07:28:42.507Z,24.00
2022-08-07T07:31:07.153Z,24.10
2022-08-07T07:33:35.969Z,24.70
2022-08-07T07:36:13.188Z,24.90
2022-08-07T07:38:45.889Z,24.70
2022-08-07T07:41:16.500Z,25.50
2022-08-07T07:44:14.654Z,25.90
2022-08-07T07:46:57.340Z,26.00
2022-08-07T07:50:33.020Z,26.30
2022-08-07T07:52:16.803Z,26.60
2022-08-07T07:54:51.237Z,26.10
2022-08-07T07:57:43.794Z,25.30
2022-08-07T08:00:18.289Z,25.60
2022-08-07T08:03:06.222Z,26.30
2022-08-07T08:05:50.862Z,26.90
2022-08-07T08:08:35.291Z,27.30
2022-08-07T08:11:13.854Z,28.00
2022-08-07T08:13:54.294Z,27.60
2022-08-07T08:16:42.671Z,27.70
2022-08-07T08:20:17.329Z,27.80
2022-08-07T08:22:32.983Z,27.80
2022-08-07T08:25:41.956Z,27.60
2022-08-07T08:28:16.805Z,26.70
2022-08-07T08:30:58.753Z,27.40
2022-08-07T08:33:33.230Z,27.50
2022-08-07T08:36:02.694Z,27.30
2022-08-07T08:38:40.454Z,27.20
2022-08-07T08:41:21.428Z,26.90
2022-08-07T08:43:59.786Z,27.20
2022-08-07T08:46:44.810Z,27.10
2022-08-07T08:49:57.206Z,27.30
2022-08-07T08:52:52.512Z,26.40
2022-08-07T08:55:54.830Z,26.50
2022-08-07T08:58:58.416Z,26.40
2022-08-07T09:01:49.325Z,25.40
2022-08-07T09:04:36.917Z,24.90
2022-08-07T09:07:46.422Z,24.80
2022-08-07T09:10:35.338Z,24.60
2022-08-07T09:13:16.308Z,25.50
2022-08-07T09:16:30.478Z,26.10
2022-08-07T09:20:35.537Z,26.60
2022-08-07T09:24:33.732Z,25.80
2022-08-07T09:26:22.257Z,25.90
2022-08-07T09:30:05.813Z,26.10
2022-08-07T09:32:18.716Z,26.50
2022-08-07T09:36:02.927Z,26.80
2022-08-07T09:38:19.801Z,26.50
2022-08-07T09:41:16.786Z,26.80
2022-08-07T09:44:20.027Z,26.20
2022-08-07T09:47:59.590Z,26.20
2022-08-07T09:51:14.543Z,26.20
2022-08-07T09:54:02.556Z,26.30
2022-08-07T09:57:05.746Z,25.70
2022-08-07T10:00:09.461Z,26.00
2022-08-07T10:04:05.399Z,27.20
2022-08-07T10:10:02.635Z,27.30
2022-08-07T10:12:53.091Z,26.70
2022-08-07T10:15:53.752Z,26.90
2022-08-07T10:19:03.746Z,26.90
2022-08-07T10:52:02.371Z,27.00
2022-08-07T10:55:20.808Z,27.70
2022-08-07T11:01:11.644Z,28.10
2022-08-07T11:03:54.901Z,28.30
2022-08-07T11:07:56.170Z,27.80
2022-08-07T11:10:16.516Z,27.90
2022-08-07T11:13:01.939Z,27.90
2022-08-07T11:15:35.124Z,27.30
2022-08-07T11:18:43.881Z,27.40
2022-08-07T11:21:45.265Z,27.40
2022-08-07T11:24:22.225Z,26.00
2022-08-07T11:27:03.401Z,25.90
2022-08-07T11:29:47.364Z,26.20
2022-08-07T11:32:58.614Z,26.20
2022-08-07T11:35:30.576Z,25.90
2022-08-07T11:38:50.356Z,26.00
2022-08-07T11:41:30.963Z,25.80
2022-08-07T11:44:52.296Z,25.70
2022-08-07T11:48:03.330Z,26.10
2022-08-07T11:51:41.817Z,26.60
2022-08-07T11:54:30.525Z,27.40
2022-08-07T11:57:18.814Z,27.20
2022-08-07T12:00:18.972Z,26.10
2022-08-07T12:03:45.240Z,26.20
2022-08-07T12:06:37.878Z,25.70
2022-08-07T12:09:16.435Z,25.40
2022-08-07T12:12:09.066Z,25.60
2022-08-07T12:15:03.152Z,25.70
2022-08-07T12:17:39.946Z,26.50
2022-08-07T12:20:49.210Z,27.00
2022-08-07T12:24:06.633Z,27.20
2022-08-07T12:26:58.993Z,27.70
2022-08-07T12:29:41.255Z,28.10
2022-08-07T12:32:38.915Z,27.90
2022-08-07T12:35:10.164Z,27.80
2022-08-07T12:38:09.378Z,27.60
2022-08-07T12:40:50.229Z,27.70
2022-08-07T12:44:02.450Z,28.00
2022-08-07T12:47:07.602Z,27.80
2022-08-07T12:50:05.093Z,27.20
2022-08-07T12:53:22.256Z,27.30
2022-08-07T12:56:10.560Z,27.70
2022-08-07T12:58:46.865Z,27.70
2022-08-07T13:01:43.098Z,27.70
2022-08-07T13:05:01.024Z,27.40
2022-08-07T13:08:14.392Z,27.20
2022-08-07T13:12:03.138Z,27.50
2022-08-07T13:15:03.294Z,27.70
2022-08-07T13:18:03.306Z,27.70
2022-08-07T13:20:56.177Z,27.50
2022-08-07T13:26:41.717Z,26.90
2022-08-07T13:29:34.872Z,27.00
2022-08-07T13:32:32.253Z,27.00
2022-08-07T13:35:08.549Z,27.50
2022-08-07T13:38:01.032Z,27.90
2022-08-07T13:40:54.294Z,27.70
2022-08-07T13:43:22.994Z,28.00
2022-08-07T13:46:11.928Z,27.60
2022-08-07T13:48:58.786Z,27.20
2022-08-07T13:52:16.382Z,27.30
2022-08-07T13:54:23.628Z,27.30
2022-08-07T13:56:56.256Z,27.20
2022-08-07T13:59:32.841Z,27.50
2022-08-07T14:02:08.638Z,27.80
2022-08-07T14:05:12.212Z,27.90
2022-08-07T14:08:00.550Z,28.10
2022-08-07T14:10:42.398Z,28.00
2022-08-07T14:13:16.577Z,28.10
2022-08-07T14:15:54.205Z,27.90
2022-08-07T14:18:50.017Z,28.30
2022-08-07T14:22:02.139Z,27.90
2022-08-07T14:24:34.233Z,27.20
2022-08-07T14:28:11.491Z,28.10
2022-08-07T14:30:07.786Z,27.60
2022-08-07T14:32:50.617Z,27.50
2022-08-07T14:35:45.073Z,27.10
2022-08-07T14:38:26.818Z,27.20
2022-08-07T14:41:14.726Z,27.40
2022-08-07T14:43:58.341Z,27.60
2022-08-07T14:46:34.567Z,27.80
2022-08-07T14:49:17.388Z,27.80
2022-08-07T14:52:04.989Z,27.60
2022-08-07T14:54:43.426Z,26.80
2022-08-07T14:57:19.277Z,27.00
2022-08-07T15:00:03.300Z,27.00
2022-08-07T15:02:35.102Z,27.20
2022-08-07T15:07:54.073Z,27.50
2022-08-07T15:10:26.636Z,27.70
2022-08-07T15:13:00.554Z,27.30
2022-08-07T15:15:43.894Z,27.50
2022-08-07T15:18:35.580Z,27.80
2022-08-07T15:27:09.923Z,27.20
2022-08-07T15:32:39.979Z,27.30
2022-08-07T15:41:23.398Z,28.10
2022-08-07T15:44:04.916Z,29.20
2022-08-07T15:46:51.709Z,29.70
2022-08-07T15:49:25.368Z,29.60
2022-08-07T15:54:40.784Z,30.30
2022-08-07T15:57:28.160Z,29.90
2022-08-07T16:00:04.330Z,29.60
2022-08-07T16:02:46.775Z,30.00
2022-08-07T16:05:19.645Z,29.50
2022-08-07T16:08:30.817Z,28.90
2022-08-07T16:11:04.633Z,28.80
2022-08-07T16:14:17.128Z,29.40
2022-08-07T16:17:15.141Z,29.20
2022-08-07T16:20:34.248Z,29.30
2022-08-07T16:23:53.809Z,28.80
2022-08-07T16:26:59.576Z,28.20
2022-08-07T16:30:09.326Z,27.50
2022-08-07T16:34:02.436Z,26.70
2022-08-07T16:37:02.105Z,26.00
2022-08-07T16:40:04.498Z,25.50
2022-08-07T16:44:06.182Z,25.10
2022-08-07T16:47:08.813Z,24.90
2022-08-07T16:50:35.999Z,24.70
2022-08-07T16:53:57.229Z,24.50
2022-08-07T16:58:01.596Z,24.40
2022-08-07T17:00:29.908Z,24.30
2022-08-07T17:03:58.406Z,24.30
2022-08-07T17:06:31.360Z,24.30
2022-08-07T17:10:07.426Z,24.20
2022-08-07T17:12:34.344Z,24.00
2022-08-07T17:15:43.874Z,24.00
2022-08-07T17:18:52.542Z,23.90
2022-08-07T17:21:28.843Z,23.80
2022-08-07T17:24:47.397Z,23.70
2022-08-07T17:27:22.124Z,23.70
2022-08-07T17:30:14.677Z,23.50
2022-08-07T17:34:10.393Z,23.50
2022-08-07T17:36:20.364Z,23.30
2022-08-07T17:39:10.652Z,23.10
2022-08-07T17:42:02.452Z,22.90
2022-08-07T17:44:50.060Z,23.00
2022-08-07T17:47:43.390Z,23.00
2022-08-07T17:50:30.484Z,22.80
2022-08-07T17:53:07.439Z,22.80
2022-08-07T17:56:15.368Z,22.80
2022-08-07T17:59:03.582Z,22.70
2022-08-07T18:01:41.651Z,22.50
2022-08-07T18:04:24.621Z,22.40
2022-08-07T18:07:20.881Z,22.40
2022-08-07T18:10:06.092Z,22.20
2022-08-07T18:13:09.985Z,21.90
2022-08-07T18:15:59.217Z,21.80
2022-08-07T18:21:01.225Z,21.70
2022-08-07T18:21:51.805Z,21.60
2022-08-07T18:24:33.104Z,21.50
2022-08-07T18:27:20.900Z,21.40
2022-08-07T18:30:32.676Z,21.20
2022-08-07T18:33:55.159Z,21.10
2022-08-07T18:37:09.710Z,20.70
2022-08-07T18:40:06.787Z,20.50
2022-08-07T18:43:16.013Z,20.30
2022-08-07T18:46:26.696Z,20.00
2022-08-07T18:50:29.926Z,19.90
2022-08-07T18:53:04.516Z,19.70
2022-08-07T18:56:14.032Z,19.30
2022-08-07T18:59:47.365Z,19.10
2022-08-07T19:02:39.580Z,18.80
2022-08-07T19:06:04.089Z,18.80
2022-08-07T19:08:28.180Z,18.80
2022-08-07T19:11:35.152Z,18.60
2022-08-07T19:14:39.150Z,18.40
2022-08-07T19:17:55.857Z,18.30
2022-08-07T19:20:30.037Z,18.10
2022-08-07T19:23:17.728Z,18.00
2022-08-07T19:26:24.929Z,17.80
2022-08-07T19:30:53.820Z,17.80
2022-08-07T19:32:08.295Z,17.60
2022-08-07T19:34:38.644Z,17.50
2022-08-07T19:37:16.989Z,17.40
2022-08-07T19:39:57.399Z,17.30
2022-08-07T19:42:27.066Z,17.40
2022-08-07T19:45:09.297Z,17.30
2022-08-07T19:47:42.167Z,17.20
2022-08-07T19:50:43.876Z,17.20
2022-08-07T19:53:01.017Z,17.10
2022-08-07T19:55:57.590Z,17.10
2022-08-07T19:58:22.180Z,17.10
2022-08-07T20:00:57.329Z,17.00
2022-08-07T20:03:34.565Z,16.90
2022-08-07T20:06:05.147Z,16.80
2022-08-07T20:08:37.657Z,16.80
2022-08-07T20:11:12.001Z,16.70
2022-08-07T20:13:54.590Z,16.60
2022-08-07T20:16:36.350Z,16.60
2022-08-07T20:19:05.954Z,16.60
2022-08-07T20:21:42.103Z,16.50
2022-08-07T20:24:23.100Z,16.40
2022-08-07T20:26:54.662Z,16.30
2022-08-07T20:29:48.672Z,16.20
2022-08-07T20:32:22.191Z,16.10
2022-08-07T20:34:53.903Z,16.00
2022-08-07T20:37:33.805Z,16.10
2022-08-07T20:40:05.529Z,16.00
2022-08-07T20:42:56.627Z,15.80
2022-08-07T20:45:33.322Z,15.80
2022-08-07T20:48:29.022Z,15.80
2022-08-07T20:51:00.350Z,15.70
2022-08-07T20:54:02.135Z,15.60
2022-08-07T20:56:20.145Z,15.40
2022-08-07T20:58:58.843Z,15.40
2022-08-07T21:01:29.822Z,15.50
2022-08-07T21:04:23.286Z,15.40
2022-08-07T21:06:55.073Z,15.30
2022-08-07T21:09:52.020Z,15.20
2022-08-07T21:12:29.131Z,15.20
2022-08-07T21:15:04.577Z,15.20
2022-08-07T21:18:17.109Z,15.10
2022-08-07T21:20:29.452Z,15.10
2022-08-07T21:23:08.530Z,14.90
2022-08-07T21:25:56.357Z,14.90
2022-08-07T21:28:48.388Z,14.90
2022-08-07T21:32:42.250Z,14.80
2022-08-07T21:34:48.646Z,14.90
2022-08-07T21:37:25.898Z,14.90
2022-08-07T21:40:15.730Z,14.90
2022-08-07T21:42:55.957Z,15.00
2022-08-07T21:46:08.813Z,15.00
2022-08-07T21:48:43.759Z,15.00
2022-08-07T21:51:32.020Z,15.00
2022-08-07T21:54:35.926Z,14.90
2022-08-07T21:57:44.922Z,14.80
2022-08-07T22:00:25.210Z,14.70
2022-08-07T22:03:31.243Z,14.60
2022-08-07T22:06:06.074Z,14.70
2022-08-07T22:08:45.914Z,14.60
2022-08-07T22:11:18.227Z,14.50
2022-08-07T22:13:54.888Z,14.40
2022-08-07T22:16:46.862Z,14.30
2022-08-07T22:19:40.521Z,14.30
2022-08-07T22:22:21.497Z,14.30
2022-08-07T22:25:11.001Z,14.10
2022-08-07T22:28:29.486Z,14.20
2022-08-07T22:31:12.664Z,14.10
2022-08-07T22:34:13.627Z,13.90
2022-08-07T22:38:04.664Z,13.80
2022-08-07T22:40:57.325Z,13.70
2022-08-07T22:43:50.325Z,13.60
2022-08-07T22:47:16.969Z,13.50
2022-08-07T22:50:33.010Z,13.50
2022-08-07T22:54:06.660Z,13.40
2022-08-07T22:57:34.637Z,13.40
2022-08-07T23:00:21.374Z,13.30
2022-08-07T23:03:58.456Z,13.30
2022-08-07T23:06:56.569Z,13.30
2022-08-07T23:10:34.860Z,13.30
2022-08-07T23:13:48.534Z,13.20
2022-08-07T23:16:56.272Z,13.20
2022-08-07T23:20:51.710Z,13.10
2022-08-07T23:24:04.084Z,13.10
2022-08-07T23:27:02.035Z,13.10
2022-08-07T23:30:39.213Z,13.00
2022-08-07T23:34:34.748Z,13.00
2022-08-07T23:37:18.991Z,13.10
2022-08-07T23:40:14.499Z,13.10
2022-08-07T23:43:16.827Z,13.00
2022-08-07T23:46:02.957Z,13.00
2022-08-07T23:49:15.643Z,12.90
2022-08-07T23:52:58.529Z,12.80
2022-08-07T23:55:52.548Z,12.90
2022-08-07T23:58:21.288Z,13.00
